RFR1W EGPH-EGCC
Flight info
| Callsign | RFR1W |
|---|---|
| Flight time | 0h 44m |
| Altitude | 24000 |
| Route | GOSAM P600 FENIK/N0418F250 L612 BEBNI/N0406F230 L612 LAKEY |
| Aircraft | A332/H-SDE3GHIJ2J3J5M1RVWXY/LB2D1 |
Departure
| Time | 2026-04-22 16:20 |
|---|---|
| Airport | Edinburgh Airport (EGPH) |
Arrival
| Time | 2026-04-22 17:04 |
|---|---|
| Airport | Manchester Airport (EGCC) |
| Time | Latitude | Longitude | Altitude | Speed | Heading |
|---|---|---|---|---|---|
| 2026-04-22 16:12 | 55.94891 | -3.35971 | 109 ft | 0 kts | 258° |
| 2026-04-22 16:14 | 55.94891 | -3.35973 | 111 ft | 0 kts | 255° |
| 2026-04-22 16:15 | 55.94890 | -3.35976 | 111 ft | 0 kts | 251° |
| 2026-04-22 16:15 | 55.94896 | -3.35954 | 108 ft | 3 kts | 256° |
| 2026-04-22 16:15 | 55.94897 | -3.35923 | 111 ft | 3 kts | 304° |
| 2026-04-22 16:15 | 55.94902 | -3.35923 | 110 ft | 2 kts | 330° |
| 2026-04-22 16:16 | 55.94932 | -3.35919 | 111 ft | 8 kts | 5° |
| 2026-04-22 16:16 | 55.95011 | -3.35911 | 110 ft | 15 kts | 355° |
| 2026-04-22 16:16 | 55.95101 | -3.36039 | 109 ft | 20 kts | 296° |
| 2026-04-22 16:16 | 55.95130 | -3.36309 | 108 ft | 22 kts | 245° |
| 2026-04-22 16:17 | 55.95040 | -3.36548 | 107 ft | 26 kts | 238° |
| 2026-04-22 16:17 | 55.94939 | -3.36854 | 107 ft | 32 kts | 238° |
| 2026-04-22 16:17 | 55.94817 | -3.37218 | 109 ft | 36 kts | 239° |
| 2026-04-22 16:17 | 55.94683 | -3.37609 | 112 ft | 38 kts | 239° |
| 2026-04-22 16:18 | 55.94544 | -3.38025 | 112 ft | 41 kts | 238° |
| 2026-04-22 16:18 | 55.94387 | -3.38476 | 114 ft | 44 kts | 239° |
| 2026-04-22 16:18 | 55.94289 | -3.38803 | 120 ft | 16 kts | 265° |
| 2026-04-22 16:18 | 55.94319 | -3.38892 | 119 ft | 10 kts | 320° |
| 2026-04-22 16:19 | 55.94398 | -3.38935 | 120 ft | 11 kts | 19° |
| 2026-04-22 16:19 | 55.94485 | -3.38762 | 115 ft | 37 kts | 57° |
| 2026-04-22 16:19 | 55.94779 | -3.37901 | 117 ft | 127 kts | 59° |
| 2026-04-22 16:19 | 55.95376 | -3.36144 | 407 ft | 195 kts | 58° |
| 2026-04-22 16:20 | 55.96242 | -3.33763 | 880 ft | 258 kts | 53° |
| 2026-04-22 16:20 | 55.97710 | -3.31222 | 896 ft | 333 kts | 38° |
| 2026-04-22 16:20 | 55.99720 | -3.28768 | 2137 ft | 315 kts | 30° |
| 2026-04-22 16:20 | 56.01703 | -3.26744 | 3679 ft | 344 kts | 26° |
| 2026-04-22 16:21 | 56.03899 | -3.25316 | 4959 ft | 308 kts | 15° |
| 2026-04-22 16:21 | 56.05771 | -3.24347 | 6271 ft | 264 kts | 15° |
| 2026-04-22 16:21 | 56.07411 | -3.23495 | 7580 ft | 227 kts | 15° |
| 2026-04-22 16:21 | 56.08811 | -3.22766 | 8767 ft | 190 kts | 15° |
| 2026-04-22 16:22 | 56.11166 | -3.22894 | 10074 ft | 192 kts | 323° |
| 2026-04-22 16:22 | 56.12172 | -3.24869 | 10109 ft | 240 kts | 294° |
| 2026-04-22 16:22 | 56.12361 | -3.27980 | 10389 ft | 270 kts | 258° |
| 2026-04-22 16:23 | 56.10243 | -3.34283 | 11044 ft | 324 kts | 232° |
| 2026-04-22 16:23 | 56.08763 | -3.37523 | 11389 ft | 347 kts | 231° |
| 2026-04-22 16:23 | 56.07092 | -3.40750 | 12013 ft | 359 kts | 221° |
| 2026-04-22 16:24 | 56.05130 | -3.43579 | 12834 ft | 365 kts | 217° |
| 2026-04-22 16:24 | 56.00918 | -3.48837 | 14473 ft | 374 kts | 213° |
| 2026-04-22 16:24 | 55.98723 | -3.51383 | 15270 ft | 378 kts | 213° |
| 2026-04-22 16:25 | 55.96491 | -3.53933 | 16037 ft | 383 kts | 213° |
| 2026-04-22 16:25 | 55.91950 | -3.59123 | 17483 ft | 392 kts | 213° |
| 2026-04-22 16:25 | 55.89646 | -3.61772 | 18176 ft | 397 kts | 213° |
| 2026-04-22 16:26 | 55.87316 | -3.64459 | 18860 ft | 401 kts | 213° |
| 2026-04-22 16:26 | 55.84967 | -3.67172 | 19529 ft | 405 kts | 213° |
| 2026-04-22 16:26 | 55.82564 | -3.69827 | 20138 ft | 409 kts | 208° |
| 2026-04-22 16:26 | 55.79929 | -3.71793 | 20747 ft | 413 kts | 196° |
| 2026-04-22 16:27 | 55.77114 | -3.72946 | 21337 ft | 417 kts | 190° |
| 2026-04-22 16:27 | 55.74227 | -3.73681 | 21906 ft | 421 kts | 187° |
| 2026-04-22 16:27 | 55.71296 | -3.74174 | 22459 ft | 425 kts | 185° |
| 2026-04-22 16:27 | 55.68339 | -3.74561 | 22998 ft | 428 kts | 184° |
| 2026-04-22 16:28 | 55.65353 | -3.74926 | 23523 ft | 432 kts | 184° |
| 2026-04-22 16:28 | 55.62349 | -3.75308 | 23903 ft | 434 kts | 184° |
| 2026-04-22 16:28 | 55.59331 | -3.75718 | 23997 ft | 435 kts | 185° |
| 2026-04-22 16:28 | 55.56313 | -3.76154 | 24000 ft | 436 kts | 185° |
| 2026-04-22 16:29 | 55.53285 | -3.76609 | 23999 ft | 437 kts | 185° |
| 2026-04-22 16:29 | 55.50253 | -3.77074 | 24000 ft | 437 kts | 185° |
| 2026-04-22 16:29 | 55.47227 | -3.77541 | 24000 ft | 437 kts | 185° |
| 2026-04-22 16:29 | 55.44196 | -3.78010 | 24000 ft | 437 kts | 185° |
| 2026-04-22 16:30 | 55.42193 | -3.78318 | 24000 ft | 437 kts | 185° |
| 2026-04-22 16:30 | 55.38101 | -3.78947 | 23995 ft | 449 kts | 185° |
| 2026-04-22 16:30 | 55.34945 | -3.79429 | 23993 ft | 459 kts | 185° |
| 2026-04-22 16:30 | 55.31754 | -3.79915 | 23997 ft | 461 kts | 185° |
| 2026-04-22 16:31 | 55.28563 | -3.80400 | 24000 ft | 460 kts | 185° |
| 2026-04-22 16:31 | 55.25381 | -3.80882 | 24001 ft | 459 kts | 185° |
| 2026-04-22 16:31 | 55.22201 | -3.81124 | 23996 ft | 459 kts | 175° |
| 2026-04-22 16:31 | 55.19091 | -3.79924 | 24001 ft | 459 kts | 159° |
| 2026-04-22 16:32 | 55.16225 | -3.77480 | 24001 ft | 460 kts | 150° |
| 2026-04-22 16:32 | 55.13515 | -3.74506 | 24000 ft | 460 kts | 147° |
| 2026-04-22 16:32 | 55.10907 | -3.71478 | 24009 ft | 439 kts | 147° |
| 2026-04-22 16:32 | 55.08402 | -3.68641 | 24012 ft | 419 kts | 148° |
| 2026-04-22 16:33 | 55.05957 | -3.66011 | 24010 ft | 416 kts | 149° |
| 2026-04-22 16:33 | 55.03435 | -3.63439 | 23991 ft | 434 kts | 150° |
| 2026-04-22 16:33 | 55.00751 | -3.60813 | 23990 ft | 449 kts | 151° |
| 2026-04-22 16:33 | 54.97962 | -3.58156 | 23995 ft | 453 kts | 152° |
| 2026-04-22 16:34 | 54.95187 | -3.55549 | 23999 ft | 453 kts | 152° |
| 2026-04-22 16:34 | 54.92447 | -3.52987 | 24000 ft | 453 kts | 152° |
| 2026-04-22 16:34 | 54.89673 | -3.50397 | 24000 ft | 452 kts | 152° |
| 2026-04-22 16:34 | 54.86904 | -3.47810 | 24000 ft | 452 kts | 152° |
| 2026-04-22 16:35 | 54.84133 | -3.45219 | 24000 ft | 452 kts | 152° |
| 2026-04-22 16:35 | 54.81359 | -3.42626 | 24000 ft | 453 kts | 152° |
| 2026-04-22 16:35 | 54.78590 | -3.40037 | 24000 ft | 453 kts | 152° |
| 2026-04-22 16:35 | 54.75818 | -3.37450 | 24000 ft | 453 kts | 152° |
| 2026-04-22 16:36 | 54.73046 | -3.34869 | 24000 ft | 453 kts | 152° |
| 2026-04-22 16:36 | 54.70202 | -3.32522 | 24000 ft | 453 kts | 156° |
| 2026-04-22 16:36 | 54.67314 | -3.30342 | 24000 ft | 453 kts | 157° |
| 2026-04-22 16:36 | 54.64419 | -3.28186 | 24000 ft | 453 kts | 157° |
| 2026-04-22 16:37 | 54.62459 | -3.26727 | 24000 ft | 453 kts | 157° |
| 2026-04-22 16:37 | 54.59565 | -3.24570 | 24000 ft | 454 kts | 157° |
| 2026-04-22 16:37 | 54.56698 | -3.22433 | 23999 ft | 455 kts | 157° |
| 2026-04-22 16:37 | 54.53791 | -3.20265 | 24000 ft | 455 kts | 157° |
| 2026-04-22 16:38 | 54.50885 | -3.18100 | 24000 ft | 455 kts | 157° |
| 2026-04-22 16:38 | 54.47987 | -3.15943 | 24000 ft | 455 kts | 157° |
| 2026-04-22 16:38 | 54.45098 | -3.13795 | 23934 ft | 446 kts | 157° |
| 2026-04-22 16:38 | 54.42285 | -3.11707 | 23718 ft | 436 kts | 157° |
| 2026-04-22 16:39 | 54.39527 | -3.09663 | 23312 ft | 428 kts | 157° |
| 2026-04-22 16:39 | 54.36807 | -3.07649 | 22719 ft | 424 kts | 157° |
| 2026-04-22 16:39 | 54.34111 | -3.05656 | 22098 ft | 420 kts | 157° |
| 2026-04-22 16:39 | 54.31432 | -3.03680 | 21490 ft | 417 kts | 157° |
| 2026-04-22 16:40 | 54.28783 | -3.01728 | 20895 ft | 413 kts | 157° |
| 2026-04-22 16:40 | 54.26155 | -2.99793 | 20335 ft | 409 kts | 157° |
| 2026-04-22 16:40 | 54.21313 | -2.95261 | 19820 ft | 383 kts | 147° |
| 2026-04-22 16:41 | 54.19141 | -2.92824 | 19563 ft | 363 kts | 147° |
| 2026-04-22 16:41 | 54.17099 | -2.90516 | 19231 ft | 344 kts | 147° |
| 2026-04-22 16:41 | 54.15129 | -2.88293 | 18898 ft | 336 kts | 147° |
| 2026-04-22 16:41 | 54.13191 | -2.86115 | 18577 ft | 332 kts | 147° |
| 2026-04-22 16:42 | 54.11273 | -2.83963 | 18213 ft | 329 kts | 147° |
| 2026-04-22 16:42 | 54.09369 | -2.81831 | 17812 ft | 326 kts | 147° |
| 2026-04-22 16:42 | 54.07475 | -2.79714 | 17423 ft | 325 kts | 147° |
| 2026-04-22 16:42 | 54.05593 | -2.77614 | 17019 ft | 323 kts | 147° |
| 2026-04-22 16:43 | 54.03721 | -2.75527 | 16621 ft | 321 kts | 147° |
| 2026-04-22 16:43 | 54.01858 | -2.73453 | 16216 ft | 319 kts | 147° |
| 2026-04-22 16:43 | 54.00008 | -2.71395 | 15807 ft | 317 kts | 147° |
| 2026-04-22 16:43 | 53.98166 | -2.69347 | 15416 ft | 315 kts | 147° |
| 2026-04-22 16:44 | 53.96337 | -2.67317 | 15084 ft | 313 kts | 147° |
| 2026-04-22 16:44 | 53.94514 | -2.65296 | 15005 ft | 313 kts | 147° |
| 2026-04-22 16:44 | 53.92716 | -2.63305 | 14968 ft | 312 kts | 147° |
| 2026-04-22 16:44 | 53.90905 | -2.61301 | 14675 ft | 309 kts | 147° |
| 2026-04-22 16:45 | 53.89080 | -2.59284 | 14221 ft | 309 kts | 147° |
| 2026-04-22 16:45 | 53.87280 | -2.57297 | 13749 ft | 309 kts | 147° |
| 2026-04-22 16:45 | 53.85461 | -2.55290 | 13115 ft | 315 kts | 147° |
| 2026-04-22 16:45 | 53.83610 | -2.53252 | 12475 ft | 319 kts | 147° |
| 2026-04-22 16:46 | 53.81761 | -2.51217 | 11836 ft | 323 kts | 147° |
| 2026-04-22 16:46 | 53.79870 | -2.49138 | 11188 ft | 325 kts | 147° |
| 2026-04-22 16:46 | 53.77965 | -2.47046 | 10549 ft | 327 kts | 147° |
| 2026-04-22 16:46 | 53.76067 | -2.44965 | 10125 ft | 322 kts | 147° |
| 2026-04-22 16:47 | 53.74208 | -2.43011 | 10014 ft | 306 kts | 154° |
| 2026-04-22 16:47 | 53.72218 | -2.42152 | 10010 ft | 290 kts | 179° |
| 2026-04-22 16:47 | 53.70268 | -2.42807 | 10000 ft | 287 kts | 205° |
| 2026-04-22 16:47 | 53.68619 | -2.44680 | 9658 ft | 288 kts | 221° |
| 2026-04-22 16:48 | 53.67160 | -2.46989 | 9246 ft | 287 kts | 224° |
| 2026-04-22 16:48 | 53.65744 | -2.49334 | 8873 ft | 284 kts | 225° |
| 2026-04-22 16:48 | 53.64339 | -2.51666 | 8494 ft | 282 kts | 225° |
| 2026-04-22 16:48 | 53.62944 | -2.53983 | 8128 ft | 280 kts | 225° |
| 2026-04-22 16:49 | 53.61558 | -2.56284 | 8009 ft | 280 kts | 225° |
| 2026-04-22 16:49 | 53.60173 | -2.58580 | 8001 ft | 280 kts | 225° |
| 2026-04-22 16:49 | 53.58783 | -2.60885 | 7979 ft | 280 kts | 225° |
| 2026-04-22 16:49 | 53.57398 | -2.63179 | 7654 ft | 279 kts | 225° |
| 2026-04-22 16:50 | 53.56017 | -2.65465 | 7282 ft | 277 kts | 225° |
| 2026-04-22 16:50 | 53.54650 | -2.67728 | 6896 ft | 275 kts | 225° |
| 2026-04-22 16:50 | 53.53288 | -2.69980 | 6505 ft | 274 kts | 225° |
| 2026-04-22 16:50 | 53.51935 | -2.72217 | 6146 ft | 271 kts | 225° |
| 2026-04-22 16:51 | 53.50614 | -2.74395 | 5993 ft | 261 kts | 225° |
| 2026-04-22 16:51 | 53.49348 | -2.76482 | 5892 ft | 250 kts | 225° |
| 2026-04-22 16:51 | 53.48131 | -2.78488 | 5736 ft | 241 kts | 225° |
| 2026-04-22 16:51 | 53.46943 | -2.80445 | 5510 ft | 238 kts | 225° |
| 2026-04-22 16:52 | 53.45763 | -2.82387 | 5238 ft | 237 kts | 225° |
| 2026-04-22 16:52 | 53.44592 | -2.84314 | 4955 ft | 236 kts | 225° |
| 2026-04-22 16:52 | 53.43425 | -2.86234 | 4678 ft | 235 kts | 225° |
| 2026-04-22 16:52 | 53.42261 | -2.88147 | 4409 ft | 234 kts | 225° |
| 2026-04-22 16:53 | 53.41073 | -2.89992 | 4135 ft | 233 kts | 215° |
| 2026-04-22 16:53 | 53.39567 | -2.90912 | 3827 ft | 233 kts | 184° |
| 2026-04-22 16:53 | 53.38005 | -2.90352 | 3640 ft | 231 kts | 152° |
| 2026-04-22 16:53 | 53.36686 | -2.88805 | 3619 ft | 233 kts | 141° |
| 2026-04-22 16:54 | 53.35444 | -2.87061 | 3622 ft | 233 kts | 140° |
| 2026-04-22 16:54 | 53.34231 | -2.85324 | 3619 ft | 223 kts | 140° |
| 2026-04-22 16:54 | 53.33090 | -2.83688 | 3619 ft | 210 kts | 140° |
| 2026-04-22 16:54 | 53.32015 | -2.82145 | 3618 ft | 198 kts | 140° |
| 2026-04-22 16:55 | 53.30993 | -2.80678 | 3623 ft | 192 kts | 140° |
| 2026-04-22 16:55 | 53.29994 | -2.79245 | 3760 ft | 189 kts | 138° |
| 2026-04-22 16:55 | 53.29025 | -2.77947 | 3906 ft | 171 kts | 139° |
| 2026-04-22 16:55 | 53.28095 | -2.76747 | 3715 ft | 168 kts | 140° |
| 2026-04-22 16:56 | 53.27184 | -2.75591 | 3470 ft | 161 kts | 140° |
| 2026-04-22 16:56 | 53.26283 | -2.74480 | 3202 ft | 161 kts | 139° |
| 2026-04-22 16:56 | 53.25366 | -2.73385 | 3001 ft | 164 kts | 139° |
| 2026-04-22 16:56 | 53.24423 | -2.72275 | 2982 ft | 167 kts | 140° |
| 2026-04-22 16:57 | 53.23507 | -2.71102 | 2974 ft | 163 kts | 127° |
| 2026-04-22 16:57 | 53.23144 | -2.69390 | 2980 ft | 159 kts | 91° |
| 2026-04-22 16:57 | 53.23288 | -2.67547 | 3005 ft | 161 kts | 82° |
| 2026-04-22 16:57 | 53.23540 | -2.65743 | 2995 ft | 156 kts | 80° |
| 2026-04-22 16:58 | 53.23706 | -2.64622 | 2987 ft | 145 kts | 80° |
| 2026-04-22 16:58 | 53.24030 | -2.62501 | 2995 ft | 138 kts | 80° |
| 2026-04-22 16:58 | 53.24272 | -2.60942 | 2990 ft | 140 kts | 80° |
| 2026-04-22 16:58 | 53.24444 | -2.59336 | 2994 ft | 141 kts | 87° |
| 2026-04-22 16:59 | 53.24564 | -2.57712 | 2987 ft | 141 kts | 83° |
| 2026-04-22 16:59 | 53.24784 | -2.56110 | 2982 ft | 141 kts | 80° |
| 2026-04-22 16:59 | 53.25033 | -2.54529 | 2982 ft | 140 kts | 80° |
| 2026-04-22 16:59 | 53.25286 | -2.52972 | 2986 ft | 138 kts | 79° |
| 2026-04-22 17:00 | 53.25528 | -2.51431 | 2985 ft | 137 kts | 80° |
| 2026-04-22 17:00 | 53.26017 | -2.48352 | 2959 ft | 137 kts | 80° |
| 2026-04-22 17:00 | 53.26258 | -2.46817 | 2763 ft | 137 kts | 80° |
| 2026-04-22 17:01 | 53.26530 | -2.45285 | 2334 ft | 138 kts | 72° |
| 2026-04-22 17:01 | 53.26998 | -2.43910 | 2153 ft | 139 kts | 62° |
| 2026-04-22 17:01 | 53.27579 | -2.42594 | 1981 ft | 139 kts | 58° |
| 2026-04-22 17:01 | 53.28173 | -2.41342 | 1792 ft | 139 kts | 58° |
| 2026-04-22 17:02 | 53.28786 | -2.40088 | 1608 ft | 138 kts | 57° |
| 2026-04-22 17:02 | 53.29363 | -2.38909 | 1440 ft | 125 kts | 56° |
| 2026-04-22 17:02 | 53.29889 | -2.37828 | 1281 ft | 115 kts | 58° |
| 2026-04-22 17:02 | 53.30380 | -2.36818 | 1109 ft | 111 kts | 58° |
| 2026-04-22 17:03 | 53.30867 | -2.35819 | 953 ft | 112 kts | 58° |
| 2026-04-22 17:03 | 53.31361 | -2.34803 | 804 ft | 114 kts | 54° |
| 2026-04-22 17:03 | 53.31865 | -2.33769 | 656 ft | 115 kts | 53° |
| 2026-04-22 17:03 | 53.32382 | -2.32724 | 486 ft | 117 kts | 52° |
| 2026-04-22 17:04 | 53.32912 | -2.31683 | 330 ft | 119 kts | 55° |
| 2026-04-22 17:04 | 53.33426 | -2.30610 | 226 ft | 118 kts | 54° |
| 2026-04-22 17:04 | 53.33894 | -2.29630 | 217 ft | 86 kts | 49° |
| 2026-04-22 17:04 | 53.34146 | -2.29104 | 221 ft | 30 kts | 52° |
| 2026-04-22 17:05 | 53.34194 | -2.29002 | 225 ft | 17 kts | 52° |
| 2026-04-22 17:05 | 53.34333 | -2.28730 | 224 ft | 39 kts | 45° |
| 2026-04-22 17:05 | 53.34537 | -2.28515 | 227 ft | 35 kts | 20° |
| 2026-04-22 17:05 | 53.34753 | -2.28316 | 237 ft | 35 kts | 48° |
| 2026-04-22 17:06 | 53.34901 | -2.28011 | 240 ft | 35 kts | 51° |
| 2026-04-22 17:06 | 53.35056 | -2.27682 | 247 ft | 36 kts | 52° |
| 2026-04-22 17:06 | 53.35218 | -2.27353 | 254 ft | 37 kts | 51° |
| 2026-04-22 17:06 | 53.35377 | -2.27206 | 262 ft | 21 kts | 335° |
| 2026-04-22 17:07 | 53.35503 | -2.27364 | 266 ft | 26 kts | 322° |
| 2026-04-22 17:07 | 53.35623 | -2.27526 | 253 ft | 19 kts | 319° |
| 2026-04-22 17:07 | 53.35688 | -2.27609 | 251 ft | 0 kts | 330° |
| 2026-04-22 17:08 | 53.35690 | -2.27611 | 251 ft | 0 kts | 330° |
| 2026-04-22 17:08 | 53.35709 | -2.27625 | 251 ft | 8 kts | 338° |
| 2026-04-22 17:08 | 53.35794 | -2.27701 | 251 ft | 18 kts | 317° |
| 2026-04-22 17:09 | 53.35920 | -2.27846 | 251 ft | 25 kts | 350° |
| 2026-04-22 17:09 | 53.36032 | -2.27879 | 251 ft | 16 kts | 12° |
| 2026-04-22 17:09 | 53.36104 | -2.27898 | 251 ft | 18 kts | 324° |
| 2026-04-22 17:09 | 53.36199 | -2.28052 | 251 ft | 3 kts | 315° |
| 2026-04-22 17:10 | 53.36243 | -2.28127 | 251 ft | 16 kts | 315° |
| 2026-04-22 17:10 | 53.36343 | -2.28293 | 251 ft | 21 kts | 315° |
| 2026-04-22 17:10 | 53.36364 | -2.28329 | 251 ft | 0 kts | 315° |
| 2026-04-22 17:10 | 53.36370 | -2.28340 | 251 ft | 6 kts | 315° |
| 2026-04-22 17:11 | 53.36415 | -2.28454 | 251 ft | 18 kts | 298° |
| 2026-04-22 17:11 | 53.36519 | -2.28656 | 251 ft | 27 kts | 315° |
| 2026-04-22 17:11 | 53.36629 | -2.28754 | 251 ft | 17 kts | 10° |
| 2026-04-22 17:11 | 53.36731 | -2.28617 | 251 ft | 22 kts | 44° |
| 2026-04-22 17:12 | 53.36795 | -2.28488 | 251 ft | 1 kts | 88° |
| 2026-04-22 17:12 | 53.36773 | -2.28438 | 251 ft | 10 kts | 132° |
| 2026-04-22 17:12 | 53.36751 | -2.28401 | 251 ft | 0 kts | 135° |